Pagrindinis puslapis
METAR-TAF:

METAR-TAF

Oro uostai :

Gamvik, Norvegija

platuma: 71-02N, ilguma: 027-50E, Aukštis: 1 m

Dabartinis oras

Ataskaita buvo paskelbta 33 minutes, ne 12:50 UTC
Vėjas 8 kt iš Rytų/Pietryčių
Temperatūra -3°C
Drėgmė 80%
Slėgis 1026 hPa
Matomumas: 3300 m
sniegas,

METAR: ENMH 201250Z AUTO 12008KT 3300 -SN NCD M03/M06 Q1026

Laikas: 15:23 (13:23 UTC)

Prognozė

Ataskaita buvo paskelbta 23 valandos ir 23 minutes, ne 14:00 UTC
Prognozė galioja nuo 19 metu 15 UTC su 19 metu 22 UTC
Vėjas 18 kt iš Pietų/Pietryčių
Matomumas 10 km arba daugiau
nėra debesų žemiau 1500 m ir nėra kamuolinių lietaus debesų
Tikimybė 30% :
Laikinai
nuo 19 metu 20 UTC su 19 metu 22 UTC
Vėjas 18 kt iš Pietų/Pietryčių su gūsio iki 28 kt
Sniego pustymas pažeme,

TAF: ENMH 191400Z 1915/1922 15018KT CAVOK PROB30 TEMPO 1920/1922 15018G28KT DRSN

Orai ataskaitas ir orų prognozės (METAR, TAF).

turimą stotys yra geltonos ir raudonos taškus žemėlapyje.

Perkelti pele per norėdami pamatyti stoties vardą.

Tada spustelėkite, norėdami matyti oro stebėjimo ir prognozės.

Norėdami pakeisti žemėlapį: spustelėkite ant žalios mygtukų su juodo kryžiaus žemyn,; žalią mygtuką su brūkšneliu, jei norite nutolinti; arba žalių rodyklių gretimoms žemėlapius.


METAR-TAF: